Time;durP1;ratioP1;P1;durP2;ratioP2;P2;SDS_P1;SDS_P2;PMS_P1;PMS_P2;Temp;Humidity;BMP_temperature;BMP_pressure;BME280_temperature;BME280_humidity;BME280_pressure;Samples;Min_cycle;Max_cycle;Signal;HPM_P1;HPM_P2
2021/11/05 00:01:22;;;;;;;0.80;0.10;;;4.50;99.90;;;;;;5064614;28;20025;-78
2021/11/05 00:03:48;;;;;;;1.05;0.30;;;4.50;99.90;;;;;;5064752;28;20033;-79
2021/11/05 00:06:14;;;;;;;4.13;0.82;;;4.50;99.90;;;;;;5048378;28;20024;-78
2021/11/05 00:08:40;;;;;;;0.63;0.30;;;4.60;99.90;;;;;;5064995;28;20077;-79
2021/11/05 00:11:05;;;;;;;3.88;0.95;;;4.50;99.90;;;;;;5064435;28;20020;-78
2021/11/05 00:13:31;;;;;;;3.33;0.28;;;4.60;99.90;;;;;;5046226;28;20079;-78
2021/11/05 00:15:56;;;;;;;2.92;0.15;;;4.60;99.90;;;;;;5084377;28;20030;-79
2021/11/05 00:18:22;;;;;;;1.48;0.43;;;4.60;99.90;;;;;;5067092;28;20023;-78
2021/11/05 00:20:48;;;;;;;3.33;0.57;;;4.60;99.90;;;;;;5084577;28;20028;-78
2021/11/05 00:23:14;;;;;;;4.32;0.38;;;4.60;99.90;;;;;;5084522;28;20389;-79
2021/11/05 00:25:40;;;;;;;2.53;0.45;;;4.60;99.90;;;;;;5083909;28;20029;-78
2021/11/05 00:28:06;;;;;;;8.10;0.75;;;4.60;99.90;;;;;;5065908;28;20092;-79
2021/11/05 00:30:31;;;;;;;2.53;0.20;;;4.60;99.90;;;;;;5066839;28;20035;-79
2021/11/05 00:32:57;;;;;;;4.47;0.40;;;6.20;99.90;;;;;;5084256;28;20120;-78
2021/11/05 00:35:23;;;;;;;0.98;0.32;;;4.50;99.90;;;;;;5050766;28;20017;-79
2021/11/05 00:37:49;;;;;;;14.90;0.60;;;4.50;99.90;;;;;;5064948;28;20039;-79
2021/11/05 00:40:15;;;;;;;2.72;0.60;;;4.50;99.90;;;;;;5045188;28;20025;-78
2021/11/05 00:42:41;;;;;;;0.63;0.30;;;4.50;99.90;;;;;;5064215;28;20030;-79
2021/11/05 00:45:08;;;;;;;33.42;0.80;;;4.50;99.90;;;;;;5045344;28;20017;-78
2021/11/05 00:47:33;;;;;;;18.63;0.70;;;4.50;99.90;;;;;;5060577;28;20025;-78
2021/11/05 00:49:59;;;;;;;1.50;0.20;;;4.50;99.90;;;;;;5061832;28;20041;-78
2021/11/05 00:52:25;;;;;;;1.75;0.35;;;4.60;99.90;;;;;;5059367;28;20458;-78
2021/11/05 00:54:50;;;;;;;0.32;0.10;;;4.50;99.90;;;;;;5050577;28;20028;-78
2021/11/05 00:57:16;;;;;;;2.28;0.28;;;4.50;99.90;;;;;;5079745;28;20547;-78
2021/11/05 00:59:41;;;;;;;2.05;0.22;;;4.50;99.90;;;;;;5081319;28;20095;-78
2021/11/05 01:02:08;;;;;;;0.50;0.10;;;4.50;99.90;;;;;;5081543;28;20024;-79
2021/11/05 01:04:34;;;;;;;16.17;0.88;;;4.50;99.90;;;;;;5080962;28;20024;-78
2021/11/05 01:07:12;;;;;;;2.88;0.28;;;4.50;99.90;;;;;;5082330;28;20024;-79
2021/11/05 01:09:37;;;;;;;4.27;0.37;;;4.50;99.90;;;;;;5082623;28;20032;-79
2021/11/05 01:12:04;;;;;;;25.40;0.88;;;4.40;99.90;;;;;;5080736;28;20016;-78
2021/11/05 01:14:30;;;;;;;2.22;0.35;;;4.50;99.90;;;;;;5060615;28;20466;-78
2021/11/05 01:16:58;;;;;;;3.13;0.10;;;4.50;99.90;;;;;;5062291;28;20027;-78
2021/11/05 01:19:24;;;;;;;2.15;0.20;;;4.50;99.90;;;;;;5061570;28;20028;-78
2021/11/05 01:21:50;;;;;;;4.80;0.30;;;4.50;99.90;;;;;;5080945;28;20027;-78
2021/11/05 01:24:15;;;;;;;0.90;0.20;;;4.50;99.90;;;;;;5063090;28;20033;-79
2021/11/05 01:26:41;;;;;;;10.15;0.30;;;4.50;99.90;;;;;;5080701;28;20025;-78
2021/11/05 01:29:06;;;;;;;1.88;0.40;;;4.50;99.90;;;;;;5080946;28;20032;-78
2021/11/05 01:31:32;;;;;;;2.38;0.20;;;4.50;99.90;;;;;;5061815;28;20508;-77
2021/11/05 01:33:58;;;;;;;1.50;0.20;;;4.50;99.90;;;;;;5078239;28;20124;-79
2021/11/05 01:36:24;;;;;;;95.18;3.45;;;4.50;99.90;;;;;;5060551;28;20032;-78
2021/11/05 01:38:50;;;;;;;2.75;0.20;;;4.50;99.90;;;;;;5042099;28;20070;-79
2021/11/05 01:41:16;;;;;;;4.28;0.13;;;4.50;99.90;;;;;;5059792;28;20378;-78
2021/11/05 01:43:44;;;;;;;3.35;0.30;;;4.50;99.90;;;;;;5058638;28;20108;-78
2021/11/05 01:46:10;;;;;;;3.83;0.10;;;4.50;99.90;;;;;;5058243;28;20021;-77
2021/11/05 01:48:36;;;;;;;5.82;0.17;;;4.50;99.90;;;;;;5058360;28;20440;-78
2021/11/05 01:51:02;;;;;;;23.85;1.13;;;4.50;99.90;;;;;;5058838;28;20143;-77
2021/11/05 01:53:28;;;;;;;34.45;1.08;;;4.50;99.90;;;;;;5062230;28;20047;-77
2021/11/05 01:55:54;;;;;;;0.85;0.17;;;4.50;99.90;;;;;;5062314;28;20504;-77
2021/11/05 01:58:20;;;;;;;2.40;0.30;;;4.50;99.90;;;;;;5062426;28;20035;-77
2021/11/05 02:00:47;;;;;;;10.23;0.68;;;4.50;99.90;;;;;;5061640;28;20071;-77
2021/11/05 02:03:14;;;;;;;3.63;0.13;;;4.40;99.90;;;;;;5056819;28;20417;-77
2021/11/05 02:05:40;;;;;;;32.30;1.27;;;4.40;99.90;;;;;;5038991;28;20021;-77
2021/11/05 02:08:07;;;;;;;18.10;0.63;;;4.40;99.90;;;;;;5056578;28;20032;-76
2021/11/05 02:10:33;;;;;;;1.88;0.13;;;4.40;99.90;;;;;;5038886;28;20021;-76
2021/11/05 02:12:58;;;;;;;104.00;3.65;;;4.40;99.90;;;;;;5043927;28;20021;-77
2021/11/05 02:15:25;;;;;;;1.27;0.10;;;4.40;99.90;;;;;;5075967;28;20012;-77
2021/11/05 02:17:51;;;;;;;9.20;0.40;;;4.40;99.90;;;;;;5063327;28;20025;-76
2021/11/05 02:20:24;;;;;;;43.22;1.20;;;4.40;99.90;;;;;;5081501;28;20021;-77
2021/11/05 02:22:51;;;;;;;0.40;0.10;;;4.40;99.90;;;;;;5081609;28;20040;-77
2021/11/05 02:25:17;;;;;;;1.48;0.10;;;4.40;99.90;;;;;;5067302;28;20036;-76
2021/11/05 02:27:42;;;;;;;4.93;0.73;;;4.40;99.90;;;;;;5061682;28;20373;-77
2021/11/05 02:30:09;;;;;;;1.98;0.28;;;4.50;99.90;;;;;;5060998;28;20039;-77
2021/11/05 02:32:36;;;;;;;3.42;0.40;;;4.40;99.90;;;;;;5065494;28;20435;-77
2021/11/05 02:35:03;;;;;;;22.38;0.65;;;4.40;99.90;;;;;;5063499;28;20040;-76
2021/11/05 02:37:28;;;;;;;5.57;0.20;;;4.40;99.90;;;;;;5063995;28;20059;-76
2021/11/05 02:39:55;;;;;;;3.03;0.10;;;4.40;99.90;;;;;;5081489;28;20028;-77
2021/11/05 02:42:21;;;;;;;38.90;1.30;;;4.40;99.90;;;;;;5061939;28;20033;-76
2021/11/05 02:44:47;;;;;;;4.85;0.10;;;4.40;99.90;;;;;;5081025;28;20099;-76
2021/11/05 02:47:19;;;;;;;0.55;0.10;;;4.40;99.90;;;;;;5062928;28;20105;-77
2021/11/05 02:49:46;;;;;;;3.42;0.22;;;4.40;99.90;;;;;;5080779;28;20031;-77
2021/11/05 02:52:13;;;;;;;3.97;0.10;;;4.40;99.90;;;;;;5079832;28;20020;-77
2021/11/05 02:54:39;;;;;;;3.72;0.20;;;4.40;99.90;;;;;;5042548;28;20029;-77
2021/11/05 02:57:04;;;;;;;4.18;0.28;;;4.40;99.90;;;;;;5043013;28;20374;-77
2021/11/05 02:59:30;;;;;;;13.90;0.85;;;4.50;99.90;;;;;;5060308;28;20384;-77
2021/11/05 03:01:56;;;;;;;93.30;2.05;;;4.40;99.90;;;;;;5060668;28;20070;-77
2021/11/05 03:04:22;;;;;;;28.52;0.80;;;4.40;99.90;;;;;;5060218;28;20058;-77
2021/11/05 03:06:48;;;;;;;0.52;0.05;;;4.30;99.90;;;;;;5080514;28;20044;-77
2021/11/05 03:09:16;;;;;;;0.98;0.17;;;4.30;99.90;;;;;;5080809;28;20013;-77
2021/11/05 03:11:44;;;;;;;1.60;0.03;;;4.30;99.90;;;;;;5080751;28;20108;-77
2021/11/05 03:14:10;;;;;;;2.33;0.15;;;4.30;99.90;;;;;;5045607;28;20036;-77
2021/11/05 03:16:37;;;;;;;2.08;0.10;;;4.30;99.90;;;;;;5060245;28;20029;-77
2021/11/05 03:19:03;;;;;;;1.02;0.05;;;4.20;99.90;;;;;;5060699;28;20021;-76
2021/11/05 03:21:29;;;;;;;37.35;1.48;;;4.20;99.90;;;;;;5042184;28;20025;-76
2021/11/05 03:23:54;;;;;;;1.85;0.10;;;4.20;99.90;;;;;;5056603;28;20060;-76
2021/11/05 03:26:20;;;;;;;217.80;8.40;;;4.20;99.90;;;;;;5062141;28;20017;-77
2021/11/05 03:28:46;;;;;;;23.10;0.73;;;4.10;99.90;;;;;;5079865;28;20017;-77
2021/11/05 03:31:12;;;;;;;1.75;0.08;;;4.10;99.90;;;;;;5079992;28;20027;-77
2021/11/05 03:33:37;;;;;;;2.28;0.03;;;4.10;99.90;;;;;;5067609;28;20048;-77
2021/11/05 03:36:03;;;;;;;155.82;5.75;;;4.00;99.90;;;;;;5060130;28;20025;-77
2021/11/05 03:38:30;;;;;;;1.00;0.43;;;4.00;99.90;;;;;;5059695;28;20036;-76
2021/11/05 03:40:55;;;;;;;83.25;2.47;;;4.00;99.90;;;;;;5059687;28;20029;-76
2021/11/05 03:43:21;;;;;;;39.78;1.85;;;4.00;99.90;;;;;;5068803;28;20030;-76
2021/11/05 03:45:46;;;;;;;4.70;0.10;;;4.00;99.90;;;;;;5079570;28;20021;-76
2021/11/05 03:48:12;;;;;;;0.68;0.05;;;3.90;99.90;;;;;;5079374;28;20032;-76
2021/11/05 03:50:38;;;;;;;121.90;5.40;;;3.90;99.90;;;;;;5061895;28;20055;-76
2021/11/05 03:53:04;;;;;;;24.23;0.98;;;3.90;99.90;;;;;;5079476;28;20017;-77
2021/11/05 03:55:29;;;;;;;46.92;1.23;;;3.80;99.90;;;;;;5062152;28;20029;-76
2021/11/05 03:57:55;;;;;;;161.52;5.50;;;3.80;99.90;;;;;;5079574;28;20024;-76
2021/11/05 04:00:21;;;;;;;1.77;0.00;;;3.80;99.90;;;;;;5079764;28;20020;-76
2021/11/05 04:02:47;;;;;;;2.40;0.13;;;3.80;99.90;;;;;;5043445;28;20497;-76
2021/11/05 04:05:13;;;;;;;0.68;0.20;;;3.80;99.90;;;;;;5055388;28;20478;-76
2021/11/05 04:07:39;;;;;;;39.05;1.55;;;3.80;99.90;;;;;;5061464;28;20093;-76
2021/11/05 04:10:05;;;;;;;25.63;0.90;;;3.80;99.90;;;;;;5079242;28;20012;-76
2021/11/05 04:12:31;;;;;;;19.63;0.65;;;3.80;99.90;;;;;;5078905;28;20020;-76
2021/11/05 04:14:57;;;;;;;0.15;0.10;;;3.80;99.90;;;;;;5048856;28;20024;-77
2021/11/05 04:17:22;;;;;;;4.80;0.47;;;3.80;99.90;;;;;;5058937;28;20474;-77
2021/11/05 04:19:48;;;;;;;2.58;0.32;;;3.80;99.90;;;;;;5058928;28;20029;-77
2021/11/05 04:22:14;;;;;;;1.10;0.43;;;3.80;99.90;;;;;;5058945;28;20040;-78
2021/11/05 04:24:39;;;;;;;3.10;0.00;;;3.80;99.90;;;;;;5041394;28;20029;-77
2021/11/05 04:27:05;;;;;;;1.08;0.10;;;3.70;99.90;;;;;;5041002;28;20016;-77
2021/11/05 04:29:31;;;;;;;6.55;0.00;;;3.70;99.90;;;;;;5041297;28;20049;-77
2021/11/05 04:31:58;;;;;;;0.57;0.10;;;3.70;99.90;;;;;;5040862;28;20544;-77
2021/11/05 04:34:24;;;;;;;5.22;0.28;;;3.60;99.90;;;;;;5076482;28;20394;-77
2021/11/05 04:36:49;;;;;;;0.40;0.00;;;3.60;99.90;;;;;;5061010;28;20031;-77
2021/11/05 04:39:17;;;;;;;3.42;0.32;;;3.60;99.90;;;;;;5060796;28;20017;-77
2021/11/05 04:41:44;;;;;;;0.80;0.00;;;3.60;99.90;;;;;;5060697;28;20028;-77
2021/11/05 04:44:09;;;;;;;4.30;0.17;;;3.60;99.90;;;;;;5063383;28;20482;-77
2021/11/05 04:46:35;;;;;;;1.25;0.08;;;3.50;99.90;;;;;;5040567;28;20032;-77
2021/11/05 04:49:00;;;;;;;2.50;0.00;;;3.50;99.90;;;;;;5058791;28;20029;-78
2021/11/05 04:51:26;;;;;;;3.30;0.00;;;3.50;99.90;;;;;;5040811;28;20104;-77
2021/11/05 04:53:52;;;;;;;2.05;0.85;;;3.50;99.90;;;;;;5058980;28;20081;-77
2021/11/05 04:56:17;;;;;;;2.67;0.85;;;3.50;99.90;;;;;;5059252;28;20029;-77
2021/11/05 04:58:43;;;;;;;4.03;0.60;;;3.50;99.90;;;;;;5058428;28;20032;-77
2021/11/05 05:01:09;;;;;;;2.40;0.00;;;3.60;99.90;;;;;;5062054;28;20386;-76
2021/11/05 05:03:35;;;;;;;1.15;0.00;;;3.60;99.90;;;;;;5078164;28;20047;-77
2021/11/05 05:06:01;;;;;;;1.02;0.10;;;3.60;99.90;;;;;;5060333;28;20028;-77
2021/11/05 05:08:27;;;;;;;0.30;0.00;;;3.60;99.90;;;;;;5078313;28;20021;-77
2021/11/05 05:10:52;;;;;;;2.83;0.30;;;3.50;99.90;;;;;;5059003;28;20028;-75
2021/11/05 05:13:18;;;;;;;2.17;0.52;;;3.50;99.90;;;;;;5040449;28;20028;-76
2021/11/05 05:15:43;;;;;;;1.50;0.00;;;3.60;99.90;;;;;;5058282;28;20095;-77
2021/11/05 05:18:09;;;;;;;5.38;0.20;;;3.50;99.90;;;;;;5040101;28;20024;-76
2021/11/05 05:20:35;;;;;;;1.80;0.00;;;3.50;99.90;;;;;;5040050;28;20516;-76
2021/11/05 05:23:01;;;;;;;2.17;0.43;;;3.50;99.90;;;;;;5058061;28;20040;-77
2021/11/05 05:25:27;;;;;;;3.08;0.20;;;3.60;99.90;;;;;;5040862;28;20497;-76
2021/11/05 05:27:52;;;;;;;3.00;0.17;;;3.60;99.90;;;;;;5057796;28;20036;-76
2021/11/05 05:30:18;;;;;;;3.67;0.20;;;3.60;99.90;;;;;;5048766;28;20056;-76
2021/11/05 05:32:47;;;;;;;2.13;0.13;;;3.60;99.90;;;;;;5077662;28;20028;-74
2021/11/05 05:35:13;;;;;;;3.72;0.15;;;3.70;99.90;;;;;;5060157;28;20074;-74
2021/11/05 05:37:39;;;;;;;1.55;0.10;;;3.70;99.90;;;;;;5078053;28;20039;-74
2021/11/05 05:40:07;;;;;;;3.00;0.10;;;3.70;99.90;;;;;;5059334;28;20024;-75
2021/11/05 05:42:33;;;;;;;6.13;0.10;;;3.60;99.90;;;;;;5076623;28;20108;-74
2021/11/05 05:44:58;;;;;;;4.03;0.22;;;3.60;99.90;;;;;;5059967;28;20141;-74
2021/11/05 05:47:24;;;;;;;6.13;0.10;;;3.60;99.90;;;;;;5078013;28;20098;-75
2021/11/05 05:49:51;;;;;;;1.70;0.10;;;3.60;99.90;;;;;;5072895;28;20021;-75
2021/11/05 05:52:17;;;;;;;2.67;0.10;;;3.70;99.90;;;;;;5058008;28;20474;-76
2021/11/05 05:54:43;;;;;;;5.00;0.30;;;3.70;99.90;;;;;;5058184;28;20104;-74
2021/11/05 05:57:09;;;;;;;5.47;0.00;;;3.70;99.90;;;;;;5039442;28;20194;-74
2021/11/05 05:59:35;;;;;;;2.03;0.20;;;3.80;99.90;;;;;;5041881;28;20016;-74
2021/11/05 06:02:00;;;;;;;2.88;0.10;;;3.90;99.90;;;;;;5059771;28;20024;-75
2021/11/05 06:04:26;;;;;;;1.85;0.20;;;3.90;99.90;;;;;;5069105;28;20048;-75
2021/11/05 06:06:53;;;;;;;1.77;0.20;;;3.90;99.90;;;;;;5057463;28;20033;-76
2021/11/05 06:09:19;;;;;;;0.82;0.20;;;3.90;99.90;;;;;;5040355;28;20021;-76
2021/11/05 06:11:44;;;;;;;2.55;0.47;;;3.90;99.90;;;;;;5039793;28;20021;-75
2021/11/05 06:14:10;;;;;;;4.78;0.05;;;3.90;99.90;;;;;;5062535;28;20048;-75
2021/11/05 06:16:36;;;;;;;21.77;1.23;;;4.00;99.90;;;;;;5059679;28;20029;-75
2021/11/05 06:19:02;;;;;;;111.20;4.15;;;4.00;99.90;;;;;;5077528;28;20025;-75
2021/11/05 06:21:28;;;;;;;58.78;1.50;;;4.10;99.90;;;;;;5077620;28;20024;-76
2021/11/05 06:23:54;;;;;;;0.70;0.00;;;4.10;99.90;;;;;;5057741;28;20064;-75
2021/11/05 06:26:20;;;;;;;5.82;0.30;;;4.10;99.90;;;;;;5057514;28;20033;-75
2021/11/05 06:28:46;;;;;;;3.33;0.20;;;4.10;99.90;;;;;;5060261;28;20073;-75
2021/11/05 06:31:11;;;;;;;1.67;0.60;;;4.20;99.90;;;;;;5077179;28;20032;-77
2021/11/05 06:33:37;;;;;;;6.43;0.73;;;4.20;99.90;;;;;;5076785;28;20402;-77
2021/11/05 06:36:03;;;;;;;6.82;0.60;;;4.30;99.90;;;;;;5059148;28;20436;-76
2021/11/05 06:38:29;;;;;;;0.90;0.45;;;4.30;99.90;;;;;;5061540;28;20013;-75
2021/11/05 06:40:56;;;;;;;1.23;0.20;;;4.30;99.90;;;;;;5060669;28;20025;-76
2021/11/05 06:43:22;;;;;;;4.28;0.60;;;4.30;99.90;;;;;;5061055;28;20020;-75
2021/11/05 06:45:47;;;;;;;2.50;0.22;;;4.40;99.90;;;;;;5043117;28;20021;-74
2021/11/05 06:48:13;;;;;;;2.72;0.30;;;4.40;99.90;;;;;;5060659;28;20025;-75
2021/11/05 06:50:41;;;;;;;4.03;0.82;;;4.50;99.90;;;;;;5059456;28;20028;-75
2021/11/05 06:53:07;;;;;;;1.00;0.20;;;4.50;99.90;;;;;;5079773;28;20025;-74
2021/11/05 06:55:32;;;;;;;5.22;0.77;;;4.60;99.90;;;;;;5061903;28;20048;-75
2021/11/05 06:57:58;;;;;;;3.53;0.55;;;4.60;99.90;;;;;;5080233;28;20024;-72
2021/11/05 07:00:24;;;;;;;1.67;0.30;;;4.60;99.90;;;;;;5081041;28;20078;-77
2021/11/05 07:02:49;;;;;;;3.53;0.30;;;4.60;99.90;;;;;;5062682;28;20024;-75
2021/11/05 07:05:16;;;;;;;1.50;0.38;;;4.60;99.90;;;;;;5080666;28;20060;-73
2021/11/05 07:07:42;;;;;;;4.88;0.13;;;4.60;99.90;;;;;;5080067;28;20020;-74
2021/11/05 07:10:10;;;;;;;2.50;0.20;;;4.60;99.90;;;;;;5080485;28;20016;-74
2021/11/05 07:12:38;;;;;;;7.03;0.38;;;4.60;99.90;;;;;;5080681;28;20021;-74
2021/11/05 07:15:04;;;;;;;4.00;0.60;;;4.60;99.90;;;;;;5081064;28;20017;-75
2021/11/05 07:17:30;;;;;;;4.82;0.22;;;4.70;99.90;;;;;;5080021;28;20025;-75
2021/11/05 07:19:55;;;;;;;1.85;0.15;;;4.70;99.90;;;;;;5079927;28;20056;-75
2021/11/05 07:22:21;;;;;;;6.07;0.47;;;4.70;99.90;;;;;;5061561;28;20070;-76
2021/11/05 07:24:47;;;;;;;7.28;0.20;;;4.80;99.90;;;;;;5080402;28;20017;-75
2021/11/05 07:27:12;;;;;;;9.38;0.60;;;4.80;99.90;;;;;;5080247;28;20024;-75
2021/11/05 07:29:38;;;;;;;8.18;0.32;;;4.90;99.90;;;;;;5061410;28;20023;-75
2021/11/05 07:32:08;;;;;;;2.72;0.30;;;5.00;99.90;;;;;;5080316;28;20028;-75
2021/11/05 07:34:35;;;;;;;4.63;0.65;;;5.10;99.90;;;;;;5079459;28;20080;-75
2021/11/05 07:37:03;;;;;;;17.80;0.70;;;5.20;99.90;;;;;;5079396;28;20077;-75
2021/11/05 07:39:31;;;;;;;4.80;0.47;;;5.30;99.90;;;;;;5079648;28;20146;-75
2021/11/05 07:41:57;;;;;;;2.17;0.32;;;5.40;99.90;;;;;;5079299;28;20028;-76
2021/11/05 07:44:22;;;;;;;3.08;0.32;;;5.50;99.90;;;;;;5079947;28;20028;-75
2021/11/05 07:46:48;;;;;;;1.90;0.30;;;5.60;99.90;;;;;;5079261;28;20020;-76
2021/11/05 07:49:15;;;;;;;2.42;0.50;;;5.80;99.90;;;;;;5060069;28;20020;-76
2021/11/05 07:51:41;;;;;;;3.97;0.20;;;5.90;99.90;;;;;;5078948;28;20040;-76
2021/11/05 07:54:07;;;;;;;5.93;0.60;;;5.90;99.90;;;;;;5061378;28;20403;-76
2021/11/05 07:56:34;;;;;;;3.10;0.50;;;6.10;99.90;;;;;;5061304;28;20025;-76
2021/11/05 07:59:00;;;;;;;1.75;0.35;;;6.20;99.90;;;;;;5080188;28;20051;-76
2021/11/05 08:01:26;;;;;;;5.28;0.85;;;6.20;99.90;;;;;;5079583;28;20029;-77
2021/11/05 08:03:51;;;;;;;5.35;0.63;;;6.30;99.90;;;;;;5078701;28;20551;-77
2021/11/05 08:06:17;;;;;;;6.18;0.47;;;6.30;99.90;;;;;;5079133;28;20107;-77
2021/11/05 08:08:43;;;;;;;4.80;0.40;;;6.40;99.90;;;;;;5060742;28;20020;-76
2021/11/05 08:11:10;;;;;;;4.38;0.52;;;6.60;99.90;;;;;;5078868;28;20020;-77
2021/11/05 08:13:36;;;;;;;5.55;0.93;;;6.70;99.90;;;;;;5079085;28;20021;-78
2021/11/05 08:16:02;;;;;;;4.82;0.50;;;6.80;99.90;;;;;;5079095;28;20046;-78
2021/11/05 08:18:27;;;;;;;5.65;0.70;;;7.00;99.90;;;;;;5078703;28;20024;-78
2021/11/05 08:20:53;;;;;;;3.28;0.40;;;7.10;99.90;;;;;;5078898;28;20446;-77
2021/11/05 08:23:19;;;;;;;6.13;0.75;;;7.30;99.90;;;;;;5080107;28;20024;-77
2021/11/05 08:25:47;;;;;;;6.53;0.60;;;7.50;99.90;;;;;;5058727;28;20024;-76
2021/11/05 08:28:14;;;;;;;6.88;0.45;;;7.60;99.90;;;;;;5073916;28;20059;-76
2021/11/05 08:30:39;;;;;;;5.93;1.10;;;7.70;99.90;;;;;;5060716;28;20058;-76
2021/11/05 08:33:05;;;;;;;6.07;1.02;;;7.90;99.90;;;;;;5077949;28;20443;-76
2021/11/05 08:35:31;;;;;;;4.25;0.40;;;8.10;99.90;;;;;;5062735;28;20047;-76
2021/11/05 08:37:58;;;;;;;2.20;0.57;;;8.30;99.90;;;;;;5080949;28;20048;-75
2021/11/05 08:40:24;;;;;;;3.08;0.20;;;8.50;99.90;;;;;;5078447;28;20084;-76
2021/11/05 08:42:50;;;;;;;11.98;0.90;;;9.90;99.90;;;;;;5060714;28;20056;-76
2021/11/05 08:45:16;;;;;;;11.57;0.80;;;9.20;99.90;;;;;;5060306;28;20394;-76
2021/11/05 08:47:43;;;;;;;7.13;0.88;;;8.70;99.90;;;;;;5066279;28;20024;-76
2021/11/05 08:50:19;;;;;;;5.85;0.52;;;8.70;99.90;;;;;;5081800;28;20141;-76
2021/11/05 08:52:45;;;;;;;4.70;1.10;;;8.60;99.90;;;;;;5085253;28;20020;-77
2021/11/05 08:55:11;;;;;;;4.25;0.75;;;8.60;99.90;;;;;;5055434;28;20040;-78
2021/11/05 08:57:38;;;;;;;5.88;0.55;;;8.50;99.90;;;;;;5068392;28;20048;-76
2021/11/05 09:00:11;;;;;;;55.85;1.75;;;8.50;99.90;;;;;;5086612;28;20076;-77
2021/11/05 09:02:37;;;;;;;7.70;0.60;;;8.50;99.90;;;;;;5055370;28;20039;-77
2021/11/05 09:05:04;;;;;;;4.30;0.40;;;8.60;99.90;;;;;;5087876;28;20024;-76
2021/11/05 09:07:30;;;;;;;11.50;0.60;;;8.70;99.90;;;;;;5069609;28;20029;-76
2021/11/05 09:09:56;;;;;;;2.88;0.80;;;8.90;99.90;;;;;;5054492;28;20044;-77
2021/11/05 09:12:23;;;;;;;7.85;0.20;;;9.10;99.90;;;;;;5052492;28;20025;-77
2021/11/05 09:14:48;;;;;;;9.05;0.45;;;9.30;99.90;;;;;;5086617;28;20025;-77
2021/11/05 09:17:15;;;;;;;3.45;0.15;;;9.40;99.90;;;;;;5089046;28;20024;-76
2021/11/05 09:19:40;;;;;;;7.38;0.75;;;9.60;99.90;;;;;;5063513;28;20109;-76
2021/11/05 09:22:07;;;;;;;1.77;0.25;;;9.70;99.90;;;;;;5049752;28;20036;-77
2021/11/05 09:24:34;;;;;;;10.02;0.57;;;9.90;99.90;;;;;;5081771;28;20016;-75
2021/11/05 09:27:00;;;;;;;4.40;0.68;;;10.00;99.90;;;;;;5065271;28;20020;-76
2021/11/05 09:29:25;;;;;;;10.02;0.35;;;10.00;99.90;;;;;;5061360;28;20024;-76
2021/11/05 09:31:51;;;;;;;5.57;0.20;;;10.20;99.90;;;;;;5054907;28;20013;-76
2021/11/05 09:34:16;;;;;;;8.63;0.13;;;10.40;99.90;;;;;;5073092;28;20029;-77
2021/11/05 09:36:42;;;;;;;2.97;0.10;;;10.50;99.90;;;;;;5056441;28;20025;-76
2021/11/05 09:39:07;;;;;;;7.32;1.48;;;10.70;99.90;;;;;;5072954;28;20055;-76
2021/11/05 09:41:33;;;;;;;6.80;0.38;;;10.70;99.90;;;;;;5072900;28;20064;-76
2021/11/05 09:43:59;;;;;;;7.28;1.00;;;10.80;99.90;;;;;;5072912;28;20048;-77
2021/11/05 09:46:25;;;;;;;1.75;0.10;;;10.90;99.90;;;;;;5055046;28;20027;-76
2021/11/05 09:48:51;;;;;;;5.13;0.20;;;10.90;99.90;;;;;;5072775;28;20103;-76
2021/11/05 09:51:19;;;;;;;8.32;0.40;;;11.00;99.90;;;;;;5072912;28;20017;-76
2021/11/05 09:53:45;;;;;;;2.10;0.57;;;11.00;99.90;;;;;;5072714;28;20396;-76
2021/11/05 09:56:17;;;;;;;5.72;0.35;;;11.10;99.90;;;;;;5073166;28;20047;-75
2021/11/05 09:58:42;;;;;;;1.80;0.43;;;11.10;99.90;;;;;;5054713;28;20016;-75
2021/11/05 10:01:10;;;;;;;6.82;0.10;;;11.10;99.90;;;;;;5072808;28;20497;-75
2021/11/05 10:03:36;;;;;;;6.72;0.57;;;11.30;99.90;;;;;;5072682;28;20024;-75
2021/11/05 10:06:10;;;;;;;4.80;0.20;;;11.50;99.90;;;;;;5072550;28;20024;-75
2021/11/05 10:08:36;;;;;;;4.07;0.00;;;11.80;99.90;;;;;;5072327;28;20033;-75
2021/11/05 10:11:20;;;;;;;2.15;0.30;;;12.10;99.90;;;;;;5072704;28;20028;-75
2021/11/05 10:13:46;;;;;;;1.33;0.52;;;12.00;99.90;;;;;;5058340;28;20397;-75
2021/11/05 10:16:17;;;;;;;8.25;0.45;;;12.10;99.90;;;;;;5058530;28;20012;-75
2021/11/05 10:19:00;;;;;;;12.77;0.75;;;12.00;99.90;;;;;;5076379;28;20040;-75
2021/11/05 10:21:40;;;;;;;0.57;0.10;;;12.00;99.90;;;;;;5076214;28;20390;-75
2021/11/05 10:24:08;;;;;;;1.65;0.15;;;11.90;99.90;;;;;;5075062;28;20021;-75
2021/11/05 10:26:35;;;;;;;;;;;11.80;99.90;;;;;;5076107;28;20032;-74
2021/11/05 10:29:02;;;;;;;2.15;0.45;;;11.70;99.90;;;;;;5076360;28;19983;-75
2021/11/05 10:31:30;;;;;;;2.65;0.13;;;11.60;99.90;;;;;;5058351;28;20013;-75
2021/11/05 10:33:56;;;;;;;5.88;0.30;;;11.60;99.90;;;;;;5076111;28;20025;-75
2021/11/05 10:36:24;;;;;;;5.93;0.38;;;11.60;99.90;;;;;;5076134;28;20367;-75
2021/11/05 10:38:59;;;;;;;3.40;0.10;;;11.60;99.90;;;;;;5075198;28;20162;-75
2021/11/05 10:41:28;;;;;;;3.10;0.57;;;11.70;99.90;;;;;;5075404;28;20021;-75
2021/11/05 10:43:57;;;;;;;7.25;0.38;;;11.90;99.90;;;;;;5058017;28;20393;-75
2021/11/05 10:46:36;;;;;;;2.28;0.43;;;12.10;99.90;;;;;;5074175;28;20059;-75
2021/11/05 10:49:06;;;;;;;1.10;0.08;;;12.40;99.90;;;;;;5058012;28;20020;-75
2021/11/05 10:51:34;;;;;;;1.80;0.00;;;12.60;99.90;;;;;;5058003;28;20021;-75
2021/11/05 10:54:01;;;;;;;6.88;0.10;;;12.80;99.90;;;;;;5037960;28;20091;-75
2021/11/05 10:56:29;;;;;;;1.48;0.00;;;13.00;99.90;;;;;;5038123;28;20112;-75
2021/11/05 10:59:08;;;;;;;0.55;0.00;;;13.10;99.90;;;;;;5038527;28;20471;-75
2021/11/05 11:01:51;;;;;;;2.53;0.10;;;13.10;99.90;;;;;;5073793;28;20028;-75
2021/11/05 11:04:27;;;;;;;0.32;0.00;;;13.10;99.90;;;;;;5058009;28;20020;-75
2021/11/05 11:06:53;;;;;;;1.85;0.22;;;12.90;99.90;;;;;;5075304;28;20037;-75
2021/11/05 11:09:22;;;;;;;1.45;0.00;;;12.80;99.90;;;;;;5057548;28;20017;-75
2021/11/05 11:11:51;;;;;;;1.55;0.00;;;12.60;99.90;;;;;;5075674;28;20048;-76
2021/11/05 11:14:17;;;;;;;3.33;0.00;;;12.30;99.90;;;;;;5075479;28;20061;-76
2021/11/05 11:16:55;;;;;;;2.05;0.00;;;12.20;99.90;;;;;;5070485;28;20082;-76
2021/11/05 11:19:22;;;;;;;1.05;0.00;;;12.10;99.90;;;;;;5037679;28;20452;-76
2021/11/05 11:21:48;;;;;;;1.55;0.00;;;12.10;99.90;;;;;;5055249;28;20017;-77
2021/11/05 11:24:16;;;;;;;0.00;0.00;;;12.10;99.90;;;;;;5055559;28;20033;-76
2021/11/05 11:26:46;;;;;;;0.93;0.00;;;12.10;99.90;;;;;;5039523;28;20389;-75
2021/11/05 11:29:14;;;;;;;0.40;0.00;;;12.10;99.90;;;;;;5075682;28;20021;-75
2021/11/05 11:31:41;;;;;;;0.60;0.00;;;12.20;99.90;;;;;;5057399;28;20028;-75
2021/11/05 11:34:08;;;;;;;1.98;0.00;;;12.20;99.90;;;;;;5057749;28;20045;-75
2021/11/05 11:36:37;;;;;;;5.15;0.22;;;12.30;99.90;;;;;;5074374;28;20021;-75
2021/11/05 11:39:09;;;;;;;0.00;0.00;;;12.30;99.90;;;;;;5057880;28;20074;-74
2021/11/05 11:41:35;;;;;;;0.00;0.00;;;12.40;99.90;;;;;;5056299;28;20501;-75
2021/11/05 11:44:03;;;;;;;0.00;0.00;;;12.60;99.90;;;;;;5075530;28;20134;-75
2021/11/05 11:46:49;;;;;;;1.17;0.00;;;12.70;99.90;;;;;;5057407;28;20504;-75
2021/11/05 11:49:36;;;;;;;0.57;0.03;;;12.80;99.90;;;;;;5064401;28;20032;-75
2021/11/05 11:52:04;;;;;;;0.20;0.00;;;12.90;99.90;;;;;;5074968;28;20024;-75
2021/11/05 11:54:38;;;;;;;0.00;0.00;;;12.70;99.90;;;;;;5056923;28;20060;-74
2021/11/05 11:57:35;;;;;;;0.47;0.00;;;12.70;99.90;;;;;;5075133;28;20035;-75
2021/11/05 12:00:06;;;;;;;0.85;0.00;;;12.50;99.90;;;;;;5074717;28;20508;-76
2021/11/05 12:02:38;;;;;;;0.10;0.00;;;12.40;99.90;;;;;;5074723;28;20103;-76
2021/11/05 12:05:30;;;;;;;3.03;0.00;;;12.20;99.90;;;;;;5057203;28;20028;-75
2021/11/05 12:08:17;;;;;;;1.35;0.08;;;12.20;99.90;;;;;;5072726;28;20028;-75
2021/11/05 12:10:54;;;;;;;1.65;0.00;;;12.20;99.90;;;;;;5074702;28;20025;-75
2021/11/05 12:13:38;;;;;;;3.63;0.00;;;12.30;99.90;;;;;;5073661;28;20035;-75
2021/11/05 12:16:09;;;;;;;2.70;0.43;;;12.40;99.90;;;;;;5076521;28;20025;-73
2021/11/05 12:19:06;;;;;;;0.10;0.05;;;12.50;99.90;;;;;;5078822;28;20046;-73
2021/11/05 12:21:35;;;;;;;0.60;0.00;;;12.80;99.90;;;;;;5079067;28;20478;-73
2021/11/05 12:26:44;;;;;;;0.95;0.00;;;12.80;99.90;;;;;;5078849;28;20036;-73
2021/11/05 12:29:10;;;;;;;0.30;0.00;;;12.90;99.90;;;;;;5076733;28;20075;-73
2021/11/05 12:31:43;;;;;;;1.17;0.00;;;12.90;99.90;;;;;;5059067;28;20412;-72
2021/11/05 12:34:21;;;;;;;0.00;0.00;;;12.90;99.90;;;;;;5077778;28;20104;-74
2021/11/05 12:36:56;;;;;;;1.70;0.00;;;13.00;99.90;;;;;;5059335;28;20044;-73
2021/11/05 12:39:29;;;;;;;2.40;0.00;;;13.00;99.90;;;;;;5077313;28;20035;-73
2021/11/05 12:42:16;;;;;;;2.38;0.15;;;13.20;99.90;;;;;;5077694;28;20030;-74
2021/11/05 12:45:00;;;;;;;0.85;0.00;;;13.30;99.90;;;;;;5060383;28;20055;-73
2021/11/05 12:47:47;;;;;;;2.85;0.32;;;13.20;99.90;;;;;;5079007;28;20059;-73
2021/11/05 12:50:15;;;;;;;1.42;0.00;;;13.10;99.90;;;;;;5059354;28;20036;-73
2021/11/05 12:52:49;;;;;;;3.35;0.00;;;13.00;99.90;;;;;;5078413;28;20461;-73
2021/11/05 12:55:14;;;;;;;2.05;0.00;;;12.90;99.90;;;;;;5079046;28;20109;-73
2021/11/05 12:57:51;;;;;;;3.38;0.00;;;12.80;99.90;;;;;;5061012;28;20477;-73